createdAt,value
2023-01-22T00:02:01.473Z,102534.78
2023-01-22T00:04:31.246Z,102511.72
2023-01-22T00:07:00.889Z,102537.94
2023-01-22T00:09:30.558Z,102527.09
2023-01-22T00:12:00.600Z,102520.06
2023-01-22T00:14:32.915Z,102527.09
2023-01-22T00:17:02.618Z,102531.00
2023-01-22T00:19:32.274Z,102525.38
2023-01-22T00:22:01.901Z,102521.28
2023-01-22T00:24:31.567Z,102520.75
2023-01-22T00:27:01.696Z,102520.88
2023-01-22T00:29:33.927Z,102517.88
2023-01-22T00:32:03.672Z,102526.06
2023-01-22T00:34:33.618Z,102520.50
2023-01-22T00:37:03.258Z,102519.25
2023-01-22T00:39:32.896Z,102494.53
2023-01-22T00:42:02.726Z,102515.72
2023-01-22T00:44:35.023Z,102496.69
2023-01-22T00:47:04.692Z,102517.16
2023-01-22T00:49:35.038Z,102518.28
2023-01-22T00:52:04.657Z,102512.50
2023-01-22T00:54:34.300Z,102465.41
2023-01-22T00:57:03.967Z,102504.09
2023-01-22T00:59:36.234Z,102514.13
2023-01-22T01:02:06.643Z,102482.50
2023-01-22T01:04:36.333Z,102501.72
2023-01-22T01:07:05.969Z,102509.25
2023-01-22T01:09:35.671Z,102508.50
2023-01-22T01:12:05.359Z,102497.63
2023-01-22T01:14:37.798Z,102483.94
2023-01-22T01:17:07.433Z,102504.22
2023-01-22T01:19:37.099Z,102497.56
2023-01-22T01:22:08.226Z,102490.91
2023-01-22T01:24:38.784Z,102497.72
2023-01-22T01:27:08.446Z,102480.31
2023-01-22T01:29:40.677Z,102487.41
2023-01-22T01:32:10.311Z,102499.38
2023-01-22T01:34:39.965Z,102492.09
2023-01-22T01:37:09.660Z,102468.53
2023-01-22T01:39:39.265Z,102482.66
2023-01-22T01:42:09.258Z,102478.38
2023-01-22T01:44:43.320Z,102486.69
2023-01-22T01:47:32.081Z,102462.22
2023-01-22T01:50:01.762Z,102483.41
2023-01-22T01:52:31.416Z,102471.78
2023-01-22T01:55:01.345Z,102483.41
2023-01-22T01:57:34.650Z,102464.00
2023-01-22T02:00:10.926Z,102479.97
2023-01-22T02:02:43.321Z,102477.81
2023-01-22T02:05:13.775Z,102470.47
2023-01-22T02:07:44.463Z,102468.91
2023-01-22T02:10:14.195Z,102479.00
2023-01-22T02:12:43.894Z,102467.38
2023-01-22T02:15:16.594Z,102483.00
2023-01-22T02:17:46.284Z,102475.19
2023-01-22T02:20:16.675Z,102456.03
2023-01-22T02:22:49.930Z,102446.28
2023-01-22T02:25:21.805Z,102468.59
2023-01-22T02:27:51.471Z,102469.63
2023-01-22T02:30:23.871Z,102475.25
2023-01-22T02:32:53.625Z,102471.34
2023-01-22T02:35:23.362Z,102462.69
2023-01-22T02:37:55.639Z,102461.75
2023-01-22T02:40:25.301Z,102449.53
2023-01-22T02:42:56.658Z,102463.03
2023-01-22T02:45:26.637Z,102458.00
2023-01-22T02:47:56.371Z,102451.13
2023-01-22T02:50:26.082Z,102454.22
2023-01-22T02:52:58.657Z,102453.63
2023-01-22T02:55:28.328Z,102460.13
2023-01-22T02:57:59.604Z,102450.16
2023-01-22T03:00:29.268Z,102452.34
2023-01-22T03:02:59.146Z,102451.66
2023-01-22T03:05:29.591Z,102442.44
2023-01-22T03:08:01.807Z,102445.00
2023-01-22T03:10:32.011Z,102413.53
2023-01-22T03:13:15.437Z,102455.78
2023-01-22T03:15:57.909Z,102460.28
2023-01-22T03:18:40.101Z,102450.72
2023-01-22T03:21:18.902Z,102449.44
2023-01-22T03:23:53.740Z,102456.34
2023-01-22T03:26:25.978Z,102444.06
2023-01-22T03:28:55.568Z,102446.91
2023-01-22T03:31:25.396Z,102438.84
2023-01-22T03:33:55.260Z,102418.88
2023-01-22T03:36:24.956Z,102430.75
2023-01-22T03:39:00.572Z,102438.09
2023-01-22T03:41:31.179Z,102420.09
2023-01-22T03:44:03.584Z,102432.88
2023-01-22T03:46:36.834Z,102431.66
2023-01-22T03:49:06.956Z,102439.91
2023-01-22T03:51:36.831Z,102429.63
2023-01-22T03:54:09.984Z,102416.38
2023-01-22T03:56:41.886Z,102407.97
2023-01-22T03:59:20.474Z,102428.06
2023-01-22T04:01:50.971Z,102425.06
2023-01-22T04:04:21.313Z,102408.16
2023-01-22T04:06:51.100Z,102441.75
2023-01-22T04:09:23.443Z,102441.22
2023-01-22T04:11:53.325Z,102412.31
2023-01-22T04:14:22.998Z,102435.09
2023-01-22T04:16:59.933Z,102445.34
2023-01-22T04:19:53.100Z,102436.31
2023-01-22T04:22:42.536Z,102432.31
2023-01-22T04:25:16.998Z,102437.13
2023-01-22T04:27:47.844Z,102430.09
2023-01-22T04:30:20.722Z,102437.28
2023-01-22T04:32:53.959Z,102410.09
2023-01-22T04:35:33.241Z,102440.69
2023-01-22T04:38:05.579Z,102440.28
2023-01-22T04:40:37.853Z,102408.34
2023-01-22T04:43:09.649Z,102428.88
2023-01-22T04:45:40.046Z,102435.69
2023-01-22T04:48:12.783Z,102427.53
2023-01-22T04:50:46.323Z,102424.59
2023-01-22T04:53:16.409Z,102445.69
2023-01-22T04:55:48.825Z,102440.38
2023-01-22T04:58:18.551Z,102404.38
2023-01-22T05:00:48.230Z,102412.03
2023-01-22T05:03:17.970Z,102434.81
2023-01-22T05:05:47.627Z,102434.97
2023-01-22T05:08:17.468Z,102439.50
2023-01-22T05:10:50.482Z,102421.81
2023-01-22T05:13:28.287Z,102425.94
2023-01-22T05:15:58.331Z,102423.91
2023-01-22T05:18:28.967Z,102417.13
2023-01-22T05:20:58.611Z,102435.31
2023-01-22T05:23:31.844Z,102436.22
2023-01-22T05:26:04.097Z,102433.88
2023-01-22T05:28:59.661Z,102422.63
2023-01-22T05:31:47.783Z,102418.34
2023-01-22T05:34:37.747Z,102431.28
2023-01-22T05:37:07.830Z,102430.84
2023-01-22T05:39:38.325Z,102429.25
2023-01-22T05:42:16.040Z,102434.50
2023-01-22T05:44:48.127Z,102425.38
2023-01-22T05:47:18.447Z,102432.66
2023-01-22T05:49:48.089Z,102397.63
2023-01-22T05:52:18.716Z,102432.66
2023-01-22T05:54:48.379Z,102446.75
2023-01-22T05:57:20.643Z,102420.38
2023-01-22T05:59:51.540Z,102448.88
2023-01-22T06:02:21.369Z,102441.97
2023-01-22T06:04:53.096Z,102457.28
2023-01-22T06:07:27.634Z,102423.59
2023-01-22T06:09:57.307Z,102435.66
2023-01-22T06:12:29.524Z,102447.06
2023-01-22T06:14:59.185Z,102442.63
2023-01-22T06:17:28.852Z,102366.72
2023-01-22T06:20:02.687Z,102452.69
2023-01-22T06:22:32.945Z,102434.41
2023-01-22T06:25:04.754Z,102448.75
2023-01-22T06:27:55.170Z,102409.91
2023-01-22T06:30:25.675Z,102428.72
2023-01-22T06:32:57.563Z,102445.50
2023-01-22T06:35:27.349Z,102448.09
2023-01-22T06:37:56.980Z,102422.75
2023-01-22T06:40:27.478Z,102448.81
2023-01-22T06:42:59.848Z,102458.53
2023-01-22T06:45:29.507Z,102455.72
2023-01-22T06:48:03.161Z,102463.22
2023-01-22T06:50:32.848Z,102465.19
2023-01-22T06:53:03.442Z,102417.06
2023-01-22T06:55:33.282Z,102445.03
2023-01-22T06:58:05.637Z,102472.09
2023-01-22T07:00:35.276Z,102469.31
2023-01-22T07:03:08.578Z,102467.81
2023-01-22T07:05:38.277Z,102465.59
2023-01-22T07:08:08.344Z,102480.66
2023-01-22T07:10:38.064Z,102461.78
2023-01-22T07:13:11.450Z,102473.53
2023-01-22T07:15:41.088Z,102467.94
2023-01-22T07:18:14.491Z,102463.22
2023-01-22T07:20:44.370Z,102493.53
2023-01-22T07:23:14.105Z,102478.69
2023-01-22T07:25:44.793Z,102495.94
2023-01-22T07:28:18.139Z,102486.47
2023-01-22T07:30:48.778Z,102489.72
2023-01-22T07:33:18.707Z,102495.19
2023-01-22T07:35:56.503Z,102457.97
2023-01-22T07:38:26.614Z,102491.34
2023-01-22T07:40:56.356Z,102506.53
2023-01-22T07:43:28.691Z,102437.69
2023-01-22T07:45:59.171Z,102508.59
2023-01-22T07:48:28.933Z,102509.81
2023-01-22T07:51:02.176Z,102492.31
2023-01-22T07:53:31.975Z,102514.50
2023-01-22T07:56:03.441Z,102509.22
2023-01-22T07:58:35.678Z,102510.72
2023-01-22T08:01:08.107Z,102511.19
2023-01-22T08:03:37.970Z,102526.75
2023-01-22T08:06:11.276Z,102513.03
2023-01-22T08:08:42.697Z,102518.41
2023-01-22T08:11:12.676Z,102525.84
2023-01-22T08:13:44.981Z,102531.72
2023-01-22T08:16:14.645Z,102525.59
2023-01-22T08:18:44.312Z,102540.41
2023-01-22T08:21:14.161Z,102538.75
2023-01-22T08:23:48.200Z,102541.53
2023-01-22T08:26:18.727Z,102527.91
2023-01-22T08:28:50.929Z,102546.78
2023-01-22T08:31:27.891Z,102511.00
2023-01-22T08:33:58.224Z,102536.31
2023-01-22T08:36:27.989Z,102543.94
2023-01-22T08:38:58.201Z,102525.91
2023-01-22T08:41:28.029Z,102539.97
2023-01-22T08:44:00.209Z,102545.13
2023-01-22T08:46:29.862Z,102541.69
2023-01-22T08:48:59.502Z,102551.59
2023-01-22T08:51:29.147Z,102491.09
2023-01-22T08:53:58.773Z,102540.88
2023-01-22T08:56:28.422Z,102552.97
2023-01-22T08:59:06.450Z,102547.84
2023-01-22T09:01:36.832Z,102562.13
2023-01-22T09:04:08.501Z,102561.00
2023-01-22T09:06:38.964Z,102558.41
2023-01-22T09:09:09.268Z,102521.84
2023-01-22T09:11:39.835Z,102555.38
2023-01-22T09:14:12.228Z,102565.50
2023-01-22T09:16:42.524Z,102563.25
2023-01-22T09:19:13.569Z,102519.31
2023-01-22T09:21:43.167Z,102548.25
2023-01-22T09:24:12.917Z,102563.13
2023-01-22T09:26:42.622Z,102559.00
2023-01-22T09:29:14.918Z,102559.34
2023-01-22T09:31:44.579Z,102574.13
2023-01-22T09:34:14.279Z,102562.13
2023-01-22T09:36:44.173Z,102463.88
2023-01-22T09:39:14.058Z,102515.81
2023-01-22T09:41:47.977Z,102494.75
2023-01-22T09:44:25.412Z,102577.53
2023-01-22T09:47:00.097Z,102535.38
2023-01-22T09:49:35.106Z,102484.59
2023-01-22T09:52:07.140Z,102583.31
2023-01-22T09:54:36.984Z,102583.31
2023-01-22T09:57:10.440Z,102563.75
2023-01-22T09:59:49.769Z,102576.34
2023-01-22T10:02:27.075Z,102512.06
2023-01-22T10:05:01.869Z,102502.50
2023-01-22T10:07:36.765Z,102509.50
2023-01-22T10:10:21.401Z,102518.66
2023-01-22T10:12:57.006Z,102525.66
2023-01-22T10:15:30.357Z,102508.56
2023-01-22T10:18:00.926Z,102588.13
2023-01-22T10:20:31.032Z,102510.25
2023-01-22T10:23:04.707Z,102571.28
2023-01-22T10:25:34.393Z,102579.75
2023-01-22T10:28:04.308Z,102553.19
2023-01-22T10:30:36.837Z,102580.81
2023-01-22T10:33:09.077Z,102576.03
2023-01-22T10:35:45.788Z,102571.75
2023-01-22T10:38:25.168Z,102581.88
2023-01-22T10:41:00.753Z,102537.00
2023-01-22T10:43:36.384Z,102555.53
2023-01-22T10:46:18.834Z,102549.81
2023-01-22T10:48:48.685Z,102582.16
2023-01-22T10:51:22.553Z,102560.53
2023-01-22T10:53:55.984Z,102548.31
2023-01-22T10:56:31.974Z,102556.25
2023-01-22T10:59:05.026Z,102541.34
2023-01-22T11:01:39.988Z,102577.69
2023-01-22T11:04:16.744Z,102574.88
2023-01-22T11:06:50.220Z,102576.41
2023-01-22T11:09:23.730Z,102571.59
2023-01-22T11:12:01.591Z,102566.16
2023-01-22T11:14:35.599Z,102577.38
2023-01-22T11:17:16.712Z,102575.13
2023-01-22T11:19:52.285Z,102577.16
2023-01-22T11:22:30.316Z,102537.06
2023-01-22T11:25:00.001Z,102566.19
2023-01-22T11:27:47.584Z,102497.75
2023-01-22T11:30:52.488Z,102575.06
2023-01-22T11:33:37.931Z,102545.94
2023-01-22T11:36:13.538Z,102556.31
2023-01-22T11:38:51.404Z,102561.59
2023-01-22T11:41:44.499Z,102551.16
2023-01-22T11:44:50.404Z,102570.19
2023-01-22T11:47:38.725Z,102572.72
2023-01-22T11:50:24.797Z,102566.19
2023-01-22T11:53:04.855Z,102569.22
2023-01-22T11:55:57.281Z,102575.78
2023-01-22T11:58:38.657Z,102571.47
2023-01-22T12:01:20.632Z,102556.50
2023-01-22T12:04:09.084Z,102562.81
2023-01-22T12:07:04.775Z,102571.91
2023-01-22T12:09:42.638Z,102556.00
2023-01-22T12:12:29.801Z,102569.47
2023-01-22T12:15:20.616Z,102518.22
2023-01-22T12:18:03.061Z,102503.47
2023-01-22T12:20:45.422Z,102566.06
2023-01-22T12:23:24.028Z,102560.41
2023-01-22T12:26:00.210Z,102535.84
2023-01-22T12:28:35.057Z,102552.50
2023-01-22T12:31:12.964Z,102547.56
2023-01-22T12:33:44.651Z,102562.19
2023-01-22T12:36:19.021Z,102564.72
2023-01-22T12:38:57.379Z,102558.66
2023-01-22T12:41:55.130Z,102516.94
2023-01-22T12:44:40.971Z,102566.84
2023-01-22T12:47:19.317Z,102562.81
2023-01-22T12:49:50.451Z,102568.97
2023-01-22T12:52:37.980Z,102574.13
2023-01-22T12:55:31.811Z,102531.03
2023-01-22T12:58:02.796Z,102585.34
2023-01-22T13:00:39.401Z,102570.50
2023-01-22T13:03:32.340Z,102556.50
2023-01-22T13:06:06.828Z,102584.09
2023-01-22T13:08:43.904Z,102582.59
2023-01-22T13:11:29.551Z,102575.03
2023-01-22T13:14:15.148Z,102580.19
2023-01-22T13:16:57.161Z,102590.66
2023-01-22T13:19:30.419Z,102588.88
2023-01-22T13:22:03.016Z,102580.06
2023-01-22T13:24:33.788Z,102576.91
2023-01-22T13:27:08.871Z,102584.22
2023-01-22T13:29:42.631Z,102574.50
2023-01-22T13:32:20.890Z,102578.78
2023-01-22T13:34:51.582Z,102561.03
2023-01-22T13:37:30.528Z,102573.00
2023-01-22T13:40:01.310Z,102592.66
2023-01-22T13:42:37.316Z,102539.75
2023-01-22T13:45:09.922Z,102589.91
2023-01-22T13:47:40.647Z,102531.16
2023-01-22T13:50:22.753Z,102605.41
2023-01-22T13:52:53.530Z,102592.78
2023-01-22T13:55:27.123Z,102593.16
2023-01-22T13:58:01.699Z,102605.47
2023-01-22T14:00:36.917Z,102601.44
2023-01-22T14:03:23.498Z,102602.69
2023-01-22T14:05:53.395Z,102615.53
2023-01-22T14:08:23.048Z,102611.69
2023-01-22T14:10:59.890Z,102611.78
2023-01-22T14:13:42.866Z,102574.22
2023-01-22T14:16:13.405Z,102616.72
2023-01-22T14:18:45.252Z,102608.88
2023-01-22T14:21:16.662Z,102621.84
2023-01-22T14:23:46.606Z,102626.13
2023-01-22T14:26:16.559Z,102617.69
2023-01-22T14:28:49.083Z,102596.78
2023-01-22T14:31:19.027Z,102620.97
2023-01-22T14:33:48.660Z,102607.75
2023-01-22T14:36:20.317Z,102632.81
2023-01-22T14:38:51.503Z,102607.75
2023-01-22T14:41:21.416Z,102626.38
2023-01-22T14:43:53.916Z,102628.81
2023-01-22T14:46:23.546Z,102648.22
2023-01-22T14:48:53.458Z,102633.22
2023-01-22T14:51:23.531Z,102628.44
2023-01-22T14:53:53.236Z,102649.75
2023-01-22T14:56:23.123Z,102642.81
2023-01-22T14:58:55.341Z,102608.66
2023-01-22T15:01:25.909Z,102643.44
2023-01-22T15:03:55.546Z,102633.09
2023-01-22T15:06:27.049Z,102644.81
2023-01-22T15:08:56.686Z,102662.19
2023-01-22T15:11:26.654Z,102635.22
2023-01-22T15:13:58.930Z,102664.47
2023-01-22T15:16:28.903Z,102651.63
2023-01-22T15:18:58.822Z,102648.81
2023-01-22T15:21:28.767Z,102667.94
2023-01-22T15:23:59.172Z,102645.41
2023-01-22T15:26:31.977Z,102659.53
2023-01-22T15:29:05.308Z,102676.38
2023-01-22T15:31:35.439Z,102662.63
2023-01-22T15:34:05.517Z,102674.56
2023-01-22T15:36:39.474Z,102667.66
2023-01-22T15:39:10.007Z,102681.66
2023-01-22T15:41:40.285Z,102628.78
2023-01-22T15:44:15.219Z,102679.50
2023-01-22T15:46:46.402Z,102689.81
2023-01-22T15:49:18.160Z,102664.06
2023-01-22T15:51:48.064Z,102691.94
2023-01-22T15:54:19.410Z,102682.00
2023-01-22T15:56:49.435Z,102681.34
2023-01-22T15:59:22.170Z,102688.53
2023-01-22T16:01:52.484Z,102690.81
2023-01-22T16:04:22.263Z,102680.19
2023-01-22T16:06:52.249Z,102683.50
2023-01-22T16:09:21.886Z,102677.06
2023-01-22T16:11:52.571Z,102686.78
2023-01-22T16:14:25.085Z,102668.19
2023-01-22T16:16:54.758Z,102663.38
2023-01-22T16:19:24.462Z,102675.94
2023-01-22T16:21:56.079Z,102626.13
2023-01-22T16:24:25.748Z,102644.00
2023-01-22T16:26:55.706Z,102687.75
2023-01-22T16:29:28.383Z,102686.91
2023-01-22T16:31:58.342Z,102680.72
2023-01-22T16:34:27.984Z,102665.34
2023-01-22T16:36:59.508Z,102700.28
2023-01-22T16:39:29.447Z,102707.59
2023-01-22T16:41:59.115Z,102703.84
2023-01-22T16:44:33.608Z,102684.94
2023-01-22T16:47:03.785Z,102680.34
2023-01-22T16:49:35.051Z,102688.69
2023-01-22T16:52:21.515Z,102702.31
2023-01-22T16:54:51.894Z,102720.34
2023-01-22T16:57:22.035Z,102721.75
2023-01-22T16:59:54.286Z,102688.06
2023-01-22T17:02:24.020Z,102724.03
2023-01-22T17:04:55.104Z,102713.56
2023-01-22T17:07:33.657Z,102715.19
2023-01-22T17:10:04.389Z,102698.06
2023-01-22T17:12:34.453Z,102728.06
2023-01-22T17:15:07.884Z,102731.84
2023-01-22T17:17:37.870Z,102721.00
2023-01-22T17:20:10.606Z,102726.94
2023-01-22T17:22:42.996Z,102722.13
2023-01-22T17:25:12.951Z,102732.22
2023-01-22T17:27:42.649Z,102735.50
2023-01-22T17:30:16.948Z,102708.63
2023-01-22T17:32:47.822Z,102713.28
2023-01-22T17:35:18.993Z,102674.06
2023-01-22T17:37:48.869Z,102737.16
2023-01-22T17:40:18.870Z,102727.16
2023-01-22T17:42:48.837Z,102724.53
2023-01-22T17:45:21.403Z,102717.44
2023-01-22T17:47:51.504Z,102730.44
2023-01-22T17:50:21.364Z,102743.94
2023-01-22T17:52:51.078Z,102744.06
2023-01-22T17:55:22.019Z,102741.41
2023-01-22T17:57:51.744Z,102712.69
2023-01-22T18:00:25.607Z,102727.28
2023-01-22T18:02:55.553Z,102740.03
2023-01-22T18:05:26.683Z,102716.94
2023-01-22T18:07:56.298Z,102709.13
2023-01-22T18:10:26.679Z,102751.75
2023-01-22T18:12:56.341Z,102714.16
2023-01-22T18:15:28.543Z,102757.03
2023-01-22T18:17:58.511Z,102716.31
2023-01-22T18:20:28.378Z,102761.56
2023-01-22T18:22:58.264Z,102748.94
2023-01-22T18:25:28.184Z,102761.56
2023-01-22T18:27:58.100Z,102752.66
2023-01-22T18:30:30.385Z,102769.41
2023-01-22T18:33:00.299Z,102773.56
2023-01-22T18:35:29.958Z,102745.28
2023-01-22T18:38:00.171Z,102759.03
2023-01-22T18:40:31.894Z,102779.00
2023-01-22T18:43:01.893Z,102771.94
2023-01-22T18:45:37.073Z,102762.72
2023-01-22T18:48:07.876Z,102771.03
2023-01-22T18:50:37.812Z,102765.34
2023-01-22T18:53:07.597Z,102773.94
2023-01-22T18:55:38.549Z,102767.41
2023-01-22T18:58:17.301Z,102774.19
2023-01-22T19:00:49.975Z,102756.91
2023-01-22T19:03:19.918Z,102778.63
2023-01-22T19:05:50.073Z,102780.13
2023-01-22T19:08:20.643Z,102789.38
2023-01-22T19:10:50.588Z,102777.59
2023-01-22T19:13:20.968Z,102755.78
2023-01-22T19:15:53.238Z,102777.50
2023-01-22T19:18:23.227Z,102800.59
2023-01-22T19:20:53.138Z,102787.06
2023-01-22T19:23:23.096Z,102801.34
2023-01-22T19:25:57.015Z,102746.19
2023-01-22T19:28:27.062Z,102791.38
2023-01-22T19:30:59.410Z,102798.16
2023-01-22T19:33:29.142Z,102791.47
2023-01-22T19:35:59.203Z,102820.63
2023-01-22T19:38:29.129Z,102798.56
2023-01-22T19:40:59.062Z,102795.63
2023-01-22T19:43:29.212Z,102826.19
2023-01-22T19:46:05.031Z,102808.75
2023-01-22T19:48:34.862Z,102820.25
2023-01-22T19:51:07.575Z,102807.63
2023-01-22T19:53:37.697Z,102820.63
2023-01-22T19:56:16.789Z,102821.00
2023-01-22T19:58:47.946Z,102818.97
2023-01-22T20:01:21.014Z,102760.63
2023-01-22T20:03:50.927Z,102822.38
2023-01-22T20:06:20.938Z,102823.13
2023-01-22T20:08:50.835Z,102840.94
2023-01-22T20:11:21.320Z,102836.25
2023-01-22T20:13:51.456Z,102842.06
2023-01-22T20:16:25.883Z,102841.31
2023-01-22T20:18:56.961Z,102833.50
2023-01-22T20:21:28.637Z,102849.53
2023-01-22T20:23:58.503Z,102844.88
2023-01-22T20:26:28.169Z,102832.13
2023-01-22T20:28:58.452Z,102846.38
2023-01-22T20:31:31.111Z,102844.22
2023-01-22T20:34:02.547Z,102836.28
2023-01-22T20:36:32.696Z,102815.81
2023-01-22T20:39:02.685Z,102841.47
2023-01-22T20:41:34.429Z,102857.13
2023-01-22T20:44:04.805Z,102850.81
2023-01-22T20:46:41.194Z,102865.06
2023-01-22T20:49:11.345Z,102865.53
2023-01-22T20:51:42.305Z,102853.44
2023-01-22T20:54:12.228Z,102868.94
2023-01-22T20:56:42.492Z,102870.88
2023-01-22T20:59:15.412Z,102866.84
2023-01-22T21:01:48.043Z,102835.91
2023-01-22T21:04:19.210Z,102865.69
2023-01-22T21:06:50.163Z,102814.59
2023-01-22T21:09:20.251Z,102857.63
2023-01-22T21:11:50.253Z,102860.41
2023-01-22T21:14:20.954Z,102859.75
2023-01-22T21:16:53.529Z,102847.94
2023-01-22T21:19:26.114Z,102870.88
2023-01-22T21:21:57.362Z,102867.47
2023-01-22T21:24:27.330Z,102871.63
2023-01-22T21:26:57.024Z,102839.09
2023-01-22T21:29:26.803Z,102859.00
2023-01-22T21:31:59.431Z,102872.66
2023-01-22T21:34:30.153Z,102866.84
2023-01-22T21:37:01.135Z,102874.28
2023-01-22T21:39:32.469Z,102836.41
2023-01-22T21:42:14.443Z,102880.97
2023-01-22T21:44:56.828Z,102882.72
2023-01-22T21:47:29.365Z,102871.59
2023-01-22T21:49:59.112Z,102883.19
2023-01-22T21:52:28.966Z,102838.44
2023-01-22T21:54:59.214Z,102868.88
2023-01-22T21:57:29.444Z,102874.81
2023-01-22T21:59:59.165Z,102862.69
2023-01-22T22:02:31.625Z,102858.25
2023-01-22T22:05:01.668Z,102866.38
2023-01-22T22:07:31.336Z,102861.97
2023-01-22T22:10:01.026Z,102851.91
2023-01-22T22:12:31.399Z,102861.09
2023-01-22T22:15:01.065Z,102862.97
2023-01-22T22:17:33.313Z,102854.53
2023-01-22T22:20:03.073Z,102862.50
2023-01-22T22:22:33.723Z,102851.91
2023-01-22T22:25:03.394Z,102853.63
2023-01-22T22:27:33.115Z,102843.53
2023-01-22T22:30:02.790Z,102835.94
2023-01-22T22:32:35.055Z,102873.72
2023-01-22T22:35:04.751Z,102860.06
2023-01-22T22:37:34.415Z,102858.44
2023-01-22T22:40:04.876Z,102862.50
2023-01-22T22:42:34.531Z,102871.34
2023-01-22T22:45:04.332Z,102880.81
2023-01-22T22:47:38.102Z,102883.97
2023-01-22T22:50:10.485Z,102893.56
2023-01-22T22:52:40.706Z,102871.00
2023-01-22T22:55:11.325Z,102876.69
2023-01-22T22:57:41.045Z,102890.56
2023-01-22T23:00:14.563Z,102841.69
2023-01-22T23:02:46.880Z,102885.91
2023-01-22T23:05:16.724Z,102867.47
2023-01-22T23:07:46.459Z,102880.38
2023-01-22T23:10:28.914Z,102891.97
2023-01-22T23:13:03.425Z,102899.94
2023-01-22T23:15:33.706Z,102890.19
2023-01-22T23:18:06.142Z,102898.28
2023-01-22T23:20:37.360Z,102903.97
2023-01-22T23:23:07.044Z,102878.06
2023-01-22T23:25:36.790Z,102904.06
2023-01-22T23:28:06.898Z,102893.84
2023-01-22T23:30:37.559Z,102916.34
2023-01-22T23:33:09.919Z,102903.69
2023-01-22T23:35:39.575Z,102924.41
2023-01-22T23:38:09.298Z,102933.00
2023-01-22T23:40:39.071Z,102929.19
2023-01-22T23:43:08.772Z,102919.88
2023-01-22T23:45:41.383Z,102921.25
2023-01-22T23:48:13.837Z,102907.34
2023-01-22T23:50:46.243Z,102919.22
2023-01-22T23:53:15.943Z,102917.97
2023-01-22T23:55:46.212Z,102897.63
2023-01-22T23:58:15.899Z,102898.50
